sensor_id;sensor_type;location;lat;lon;timestamp;P1;durP1;ratioP1;P2;durP2;ratioP2
82292;SDS011;71892;14.836;105.234;2024-02-26T00:01:02;39.97;;;21.77;;
82292;SDS011;71892;14.836;105.234;2024-02-26T00:03:28;38.58;;;19.80;;
82292;SDS011;71892;14.836;105.234;2024-02-26T00:05:55;45.42;;;25.30;;
82292;SDS011;71892;14.836;105.234;2024-02-26T00:08:21;55.00;;;28.25;;
82292;SDS011;71892;14.836;105.234;2024-02-26T00:10:48;41.65;;;22.60;;
82292;SDS011;71892;14.836;105.234;2024-02-26T00:13:14;54.35;;;25.60;;
82292;SDS011;71892;14.836;105.234;2024-02-26T00:15:41;44.90;;;24.50;;
82292;SDS011;71892;14.836;105.234;2024-02-26T00:18:07;47.47;;;24.25;;
82292;SDS011;71892;14.836;105.234;2024-02-26T00:20:34;46.67;;;25.30;;
82292;SDS011;71892;14.836;105.234;2024-02-26T00:23:00;44.58;;;23.52;;
82292;SDS011;71892;14.836;105.234;2024-02-26T00:25:27;51.22;;;27.33;;
82292;SDS011;71892;14.836;105.234;2024-02-26T00:27:53;50.00;;;28.05;;
82292;SDS011;71892;14.836;105.234;2024-02-26T00:30:22;50.50;;;26.58;;
82292;SDS011;71892;14.836;105.234;2024-02-26T00:32:49;45.97;;;25.65;;
82292;SDS011;71892;14.836;105.234;2024-02-26T00:35:15;47.50;;;23.80;;
82292;SDS011;71892;14.836;105.234;2024-02-26T00:37:45;35.60;;;24.08;;
82292;SDS011;71892;14.836;105.234;2024-02-26T00:40:12;31.90;;;22.15;;
82292;SDS011;71892;14.836;105.234;2024-02-26T00:42:39;29.63;;;18.92;;
82292;SDS011;71892;14.836;105.234;2024-02-26T00:45:11;30.30;;;20.20;;
82292;SDS011;71892;14.836;105.234;2024-02-26T00:47:38;29.20;;;17.50;;
82292;SDS011;71892;14.836;105.234;2024-02-26T00:50:06;25.95;;;16.92;;
82292;SDS011;71892;14.836;105.234;2024-02-26T00:52:34;32.45;;;18.00;;
82292;SDS011;71892;14.836;105.234;2024-02-26T00:57:28;26.75;;;16.02;;
82292;SDS011;71892;14.836;105.234;2024-02-26T00:59:55;29.00;;;15.88;;
82292;SDS011;71892;14.836;105.234;2024-02-26T01:02:22;26.27;;;15.40;;
82292;SDS011;71892;14.836;105.234;2024-02-26T01:04:48;22.52;;;13.88;;
82292;SDS011;71892;14.836;105.234;2024-02-26T01:07:15;22.60;;;15.50;;
82292;SDS011;71892;14.836;105.234;2024-02-26T01:09:45;29.40;;;15.57;;
82292;SDS011;71892;14.836;105.234;2024-02-26T01:12:11;27.13;;;14.90;;
82292;SDS011;71892;14.836;105.234;2024-02-26T01:14:38;25.38;;;14.93;;
82292;SDS011;71892;14.836;105.234;2024-02-26T01:17:04;21.83;;;14.68;;
82292;SDS011;71892;14.836;105.234;2024-02-26T01:19:30;24.02;;;14.38;;
82292;SDS011;71892;14.836;105.234;2024-02-26T01:21:59;25.08;;;13.70;;
82292;SDS011;71892;14.836;105.234;2024-02-26T01:24:26;23.52;;;14.50;;
82292;SDS011;71892;14.836;105.234;2024-02-26T01:26:53;73.32;;;26.42;;
82292;SDS011;71892;14.836;105.234;2024-02-26T01:29:19;45.33;;;18.38;;
82292;SDS011;71892;14.836;105.234;2024-02-26T01:31:46;25.10;;;13.98;;
82292;SDS011;71892;14.836;105.234;2024-02-26T01:34:12;68.07;;;25.95;;
82292;SDS011;71892;14.836;105.234;2024-02-26T01:36:39;27.48;;;13.70;;
82292;SDS011;71892;14.836;105.234;2024-02-26T01:39:06;33.97;;;14.27;;
82292;SDS011;71892;14.836;105.234;2024-02-26T01:41:32;27.58;;;11.30;;
82292;SDS011;71892;14.836;105.234;2024-02-26T01:43:59;20.20;;;10.55;;
82292;SDS011;71892;14.836;105.234;2024-02-26T01:46:25;19.73;;;12.38;;
82292;SDS011;71892;14.836;105.234;2024-02-26T01:48:52;29.85;;;13.80;;
82292;SDS011;71892;14.836;105.234;2024-02-26T01:51:19;19.05;;;11.65;;
82292;SDS011;71892;14.836;105.234;2024-02-26T01:53:45;18.65;;;10.95;;
82292;SDS011;71892;14.836;105.234;2024-02-26T01:56:12;17.23;;;11.52;;
82292;SDS011;71892;14.836;105.234;2024-02-26T01:58:40;21.88;;;13.18;;
82292;SDS011;71892;14.836;105.234;2024-02-26T02:01:08;21.50;;;11.23;;
82292;SDS011;71892;14.836;105.234;2024-02-26T02:03:35;57.05;;;23.88;;
82292;SDS011;71892;14.836;105.234;2024-02-26T02:06:02;29.98;;;16.67;;
82292;SDS011;71892;14.836;105.234;2024-02-26T02:08:30;50.60;;;24.60;;
82292;SDS011;71892;14.836;105.234;2024-02-26T02:10:56;52.50;;;26.55;;
82292;SDS011;71892;14.836;105.234;2024-02-26T02:13:23;50.13;;;23.20;;
82292;SDS011;71892;14.836;105.234;2024-02-26T02:15:49;21.08;;;11.38;;
82292;SDS011;71892;14.836;105.234;2024-02-26T02:18:15;34.85;;;16.40;;
82292;SDS011;71892;14.836;105.234;2024-02-26T02:20:44;21.10;;;11.27;;
82292;SDS011;71892;14.836;105.234;2024-02-26T02:23:11;23.00;;;13.32;;
82292;SDS011;71892;14.836;105.234;2024-02-26T02:25:38;18.83;;;11.93;;
82292;SDS011;71892;14.836;105.234;2024-02-26T02:28:04;28.52;;;14.02;;
82292;SDS011;71892;14.836;105.234;2024-02-26T02:30:31;18.40;;;11.38;;
82292;SDS011;71892;14.836;105.234;2024-02-26T02:33:01;18.13;;;11.35;;
82292;SDS011;71892;14.836;105.234;2024-02-26T02:35:27;23.17;;;12.60;;
82292;SDS011;71892;14.836;105.234;2024-02-26T02:37:55;35.38;;;18.17;;
82292;SDS011;71892;14.836;105.234;2024-02-26T02:40:23;29.92;;;17.65;;
82292;SDS011;71892;14.836;105.234;2024-02-26T02:42:49;39.25;;;19.83;;
82292;SDS011;71892;14.836;105.234;2024-02-26T02:45:16;23.38;;;13.98;;
82292;SDS011;71892;14.836;105.234;2024-02-26T02:47:42;16.17;;;11.15;;
82292;SDS011;71892;14.836;105.234;2024-02-26T02:50:09;20.25;;;12.32;;
82292;SDS011;71892;14.836;105.234;2024-02-26T02:52:35;16.38;;;11.23;;
82292;SDS011;71892;14.836;105.234;2024-02-26T02:55:02;17.45;;;12.48;;
82292;SDS011;71892;14.836;105.234;2024-02-26T02:57:29;14.43;;;10.38;;
82292;SDS011;71892;14.836;105.234;2024-02-26T02:59:56;43.78;;;26.60;;
82292;SDS011;71892;14.836;105.234;2024-02-26T03:02:23;23.58;;;11.02;;
82292;SDS011;71892;14.836;105.234;2024-02-26T03:04:50;15.18;;;10.23;;
82292;SDS011;71892;14.836;105.234;2024-02-26T03:07:17;25.80;;;15.13;;
82292;SDS011;71892;14.836;105.234;2024-02-26T03:09:44;20.23;;;12.13;;
82292;SDS011;71892;14.836;105.234;2024-02-26T03:12:10;17.10;;;10.40;;
82292;SDS011;71892;14.836;105.234;2024-02-26T03:14:37;19.55;;;11.13;;
82292;SDS011;71892;14.836;105.234;2024-02-26T03:17:03;18.65;;;11.90;;
82292;SDS011;71892;14.836;105.234;2024-02-26T03:19:30;26.85;;;18.73;;
82292;SDS011;71892;14.836;105.234;2024-02-26T03:21:56;16.95;;;12.18;;
82292;SDS011;71892;14.836;105.234;2024-02-26T03:24:26;19.85;;;13.20;;
82292;SDS011;71892;14.836;105.234;2024-02-26T03:26:52;22.35;;;15.65;;
82292;SDS011;71892;14.836;105.234;2024-02-26T03:29:19;16.20;;;10.70;;
82292;SDS011;71892;14.836;105.234;2024-02-26T03:31:45;13.98;;;10.15;;
82292;SDS011;71892;14.836;105.234;2024-02-26T03:34:12;17.90;;;10.20;;
82292;SDS011;71892;14.836;105.234;2024-02-26T03:36:40;15.20;;;11.20;;
82292;SDS011;71892;14.836;105.234;2024-02-26T03:39:07;19.27;;;11.90;;
82292;SDS011;71892;14.836;105.234;2024-02-26T03:41:34;18.23;;;10.48;;
82292;SDS011;71892;14.836;105.234;2024-02-26T03:44:01;21.23;;;13.10;;
82292;SDS011;71892;14.836;105.234;2024-02-26T03:46:28;15.38;;;10.93;;
82292;SDS011;71892;14.836;105.234;2024-02-26T03:48:55;15.57;;;10.68;;
82292;SDS011;71892;14.836;105.234;2024-02-26T03:51:21;20.00;;;11.38;;
82292;SDS011;71892;14.836;105.234;2024-02-26T03:53:48;16.73;;;10.80;;
82292;SDS011;71892;14.836;105.234;2024-02-26T03:56:15;18.23;;;11.55;;
82292;SDS011;71892;14.836;105.234;2024-02-26T03:58:41;15.57;;;11.30;;
82292;SDS011;71892;14.836;105.234;2024-02-26T04:01:08;15.85;;;10.88;;
82292;SDS011;71892;14.836;105.234;2024-02-26T04:03:35;17.42;;;10.38;;
82292;SDS011;71892;14.836;105.234;2024-02-26T04:06:01;15.57;;;11.02;;
82292;SDS011;71892;14.836;105.234;2024-02-26T04:08:29;16.95;;;11.63;;
82292;SDS011;71892;14.836;105.234;2024-02-26T04:10:55;16.33;;;11.20;;
82292;SDS011;71892;14.836;105.234;2024-02-26T04:13:22;16.05;;;11.90;;
82292;SDS011;71892;14.836;105.234;2024-02-26T04:15:48;16.70;;;11.02;;
82292;SDS011;71892;14.836;105.234;2024-02-26T04:18:15;23.60;;;11.68;;
82292;SDS011;71892;14.836;105.234;2024-02-26T04:20:41;19.45;;;11.50;;
82292;SDS011;71892;14.836;105.234;2024-02-26T04:23:08;17.05;;;12.23;;
82292;SDS011;71892;14.836;105.234;2024-02-26T04:25:35;19.35;;;12.05;;
82292;SDS011;71892;14.836;105.234;2024-02-26T04:28:01;20.50;;;12.30;;
82292;SDS011;71892;14.836;105.234;2024-02-26T04:30:28;19.85;;;12.70;;
82292;SDS011;71892;14.836;105.234;2024-02-26T04:32:54;18.10;;;13.32;;
82292;SDS011;71892;14.836;105.234;2024-02-26T04:35:21;21.70;;;11.73;;
82292;SDS011;71892;14.836;105.234;2024-02-26T04:37:48;24.90;;;13.07;;
82292;SDS011;71892;14.836;105.234;2024-02-26T04:40:14;25.27;;;14.02;;
82292;SDS011;71892;14.836;105.234;2024-02-26T04:42:41;18.70;;;13.95;;
82292;SDS011;71892;14.836;105.234;2024-02-26T04:45:07;19.20;;;13.93;;
82292;SDS011;71892;14.836;105.234;2024-02-26T04:47:34;20.13;;;13.15;;
82292;SDS011;71892;14.836;105.234;2024-02-26T04:50:01;18.63;;;12.77;;
82292;SDS011;71892;14.836;105.234;2024-02-26T04:52:28;18.00;;;12.98;;
82292;SDS011;71892;14.836;105.234;2024-02-26T04:54:55;22.15;;;14.85;;
82292;SDS011;71892;14.836;105.234;2024-02-26T04:57:21;25.95;;;15.35;;
82292;SDS011;71892;14.836;105.234;2024-02-26T04:59:48;20.52;;;15.10;;
82292;SDS011;71892;14.836;105.234;2024-02-26T05:02:14;19.23;;;14.15;;
82292;SDS011;71892;14.836;105.234;2024-02-26T05:04:41;22.95;;;15.70;;
82292;SDS011;71892;14.836;105.234;2024-02-26T05:07:08;24.83;;;15.50;;
82292;SDS011;71892;14.836;105.234;2024-02-26T05:09:34;19.65;;;14.00;;
82292;SDS011;71892;14.836;105.234;2024-02-26T05:12:01;20.27;;;14.52;;
82292;SDS011;71892;14.836;105.234;2024-02-26T05:14:29;21.60;;;15.43;;
82292;SDS011;71892;14.836;105.234;2024-02-26T05:16:55;28.10;;;15.55;;
82292;SDS011;71892;14.836;105.234;2024-02-26T05:19:22;21.08;;;16.42;;
82292;SDS011;71892;14.836;105.234;2024-02-26T05:21:48;20.23;;;15.70;;
82292;SDS011;71892;14.836;105.234;2024-02-26T05:24:16;20.52;;;15.45;;
82292;SDS011;71892;14.836;105.234;2024-02-26T05:26:43;23.95;;;14.70;;
82292;SDS011;71892;14.836;105.234;2024-02-26T05:29:09;23.63;;;16.15;;
82292;SDS011;71892;14.836;105.234;2024-02-26T05:31:39;28.48;;;15.40;;
82292;SDS011;71892;14.836;105.234;2024-02-26T05:34:08;24.20;;;16.48;;
82292;SDS011;71892;14.836;105.234;2024-02-26T05:36:34;20.35;;;15.50;;
82292;SDS011;71892;14.836;105.234;2024-02-26T05:39:01;26.63;;;15.95;;
82292;SDS011;71892;14.836;105.234;2024-02-26T05:41:29;22.75;;;16.10;;
82292;SDS011;71892;14.836;105.234;2024-02-26T05:43:55;23.95;;;15.57;;
82292;SDS011;71892;14.836;105.234;2024-02-26T05:46:22;20.75;;;16.05;;
82292;SDS011;71892;14.836;105.234;2024-02-26T05:48:52;21.80;;;15.93;;
82292;SDS011;71892;14.836;105.234;2024-02-26T05:51:19;22.90;;;15.88;;
82292;SDS011;71892;14.836;105.234;2024-02-26T05:53:46;24.55;;;14.63;;
82292;SDS011;71892;14.836;105.234;2024-02-26T05:56:19;20.27;;;14.38;;
82292;SDS011;71892;14.836;105.234;2024-02-26T05:58:47;21.40;;;14.30;;
82292;SDS011;71892;14.836;105.234;2024-02-26T06:01:15;24.75;;;15.60;;
82292;SDS011;71892;14.836;105.234;2024-02-26T06:03:43;33.08;;;15.90;;
82292;SDS011;71892;14.836;105.234;2024-02-26T06:06:10;22.95;;;15.43;;
82292;SDS011;71892;14.836;105.234;2024-02-26T06:08:37;36.58;;;15.70;;
82292;SDS011;71892;14.836;105.234;2024-02-26T06:11:07;21.75;;;14.38;;
82292;SDS011;71892;14.836;105.234;2024-02-26T06:13:34;21.23;;;15.05;;
82292;SDS011;71892;14.836;105.234;2024-02-26T06:16:01;23.70;;;14.75;;
82292;SDS011;71892;14.836;105.234;2024-02-26T06:18:28;20.98;;;14.50;;
82292;SDS011;71892;14.836;105.234;2024-02-26T06:20:54;19.58;;;14.57;;
82292;SDS011;71892;14.836;105.234;2024-02-26T06:23:20;20.00;;;14.93;;
82292;SDS011;71892;14.836;105.234;2024-02-26T06:25:47;21.05;;;13.95;;
82292;SDS011;71892;14.836;105.234;2024-02-26T06:28:13;20.25;;;14.73;;
82292;SDS011;71892;14.836;105.234;2024-02-26T06:30:40;18.85;;;15.07;;
82292;SDS011;71892;14.836;105.234;2024-02-26T06:33:06;22.35;;;17.15;;
82292;SDS011;71892;14.836;105.234;2024-02-26T06:35:33;20.77;;;15.35;;
82292;SDS011;71892;14.836;105.234;2024-02-26T06:38:00;24.10;;;15.90;;
82292;SDS011;71892;14.836;105.234;2024-02-26T06:40:26;26.95;;;16.30;;
82292;SDS011;71892;14.836;105.234;2024-02-26T06:42:53;20.17;;;15.32;;
82292;SDS011;71892;14.836;105.234;2024-02-26T06:45:19;19.83;;;16.05;;
82292;SDS011;71892;14.836;105.234;2024-02-26T06:47:46;21.35;;;14.65;;
82292;SDS011;71892;14.836;105.234;2024-02-26T06:50:13;27.10;;;15.43;;
82292;SDS011;71892;14.836;105.234;2024-02-26T06:52:39;23.48;;;13.95;;
82292;SDS011;71892;14.836;105.234;2024-02-26T06:55:06;19.95;;;15.48;;
82292;SDS011;71892;14.836;105.234;2024-02-26T06:57:33;25.23;;;15.65;;
82292;SDS011;71892;14.836;105.234;2024-02-26T07:00:00;28.65;;;15.50;;
82292;SDS011;71892;14.836;105.234;2024-02-26T07:02:29;21.35;;;15.50;;
82292;SDS011;71892;14.836;105.234;2024-02-26T07:04:55;25.52;;;16.05;;
82292;SDS011;71892;14.836;105.234;2024-02-26T07:07:26;24.27;;;15.80;;
82292;SDS011;71892;14.836;105.234;2024-02-26T07:09:53;20.27;;;15.48;;
82292;SDS011;71892;14.836;105.234;2024-02-26T07:12:20;25.27;;;16.67;;
82292;SDS011;71892;14.836;105.234;2024-02-26T07:14:47;23.35;;;16.85;;
82292;SDS011;71892;14.836;105.234;2024-02-26T07:17:14;22.10;;;16.40;;
82292;SDS011;71892;14.836;105.234;2024-02-26T07:19:42;24.02;;;17.58;;
82292;SDS011;71892;14.836;105.234;2024-02-26T07:22:08;23.17;;;17.02;;
82292;SDS011;71892;14.836;105.234;2024-02-26T07:24:35;26.15;;;18.30;;
82292;SDS011;71892;14.836;105.234;2024-02-26T07:27:01;26.23;;;17.42;;
82292;SDS011;71892;14.836;105.234;2024-02-26T07:29:27;24.33;;;17.27;;
82292;SDS011;71892;14.836;105.234;2024-02-26T07:31:54;22.63;;;17.17;;
82292;SDS011;71892;14.836;105.234;2024-02-26T07:34:21;25.73;;;17.45;;
82292;SDS011;71892;14.836;105.234;2024-02-26T07:36:53;26.67;;;16.40;;
82292;SDS011;71892;14.836;105.234;2024-02-26T07:39:19;19.48;;;17.25;;
82292;SDS011;71892;14.836;105.234;2024-02-26T07:41:46;23.52;;;17.83;;
82292;SDS011;71892;14.836;105.234;2024-02-26T07:44:15;23.38;;;18.92;;
82292;SDS011;71892;14.836;105.234;2024-02-26T07:46:42;35.90;;;17.73;;
82292;SDS011;71892;14.836;105.234;2024-02-26T07:49:09;27.45;;;18.85;;
82292;SDS011;71892;14.836;105.234;2024-02-26T07:51:38;29.15;;;20.70;;
82292;SDS011;71892;14.836;105.234;2024-02-26T07:54:14;27.15;;;19.23;;
82292;SDS011;71892;14.836;105.234;2024-02-26T07:56:47;26.98;;;16.67;;
82292;SDS011;71892;14.836;105.234;2024-02-26T07:59:23;26.60;;;17.80;;
82292;SDS011;71892;14.836;105.234;2024-02-26T08:01:52;24.63;;;18.80;;
82292;SDS011;71892;14.836;105.234;2024-02-26T08:04:19;26.60;;;18.35;;
82292;SDS011;71892;14.836;105.234;2024-02-26T08:06:45;22.48;;;16.45;;
82292;SDS011;71892;14.836;105.234;2024-02-26T08:09:12;22.48;;;16.45;;
82292;SDS011;71892;14.836;105.234;2024-02-26T08:11:38;26.33;;;17.35;;
82292;SDS011;71892;14.836;105.234;2024-02-26T08:14:04;21.95;;;16.38;;
82292;SDS011;71892;14.836;105.234;2024-02-26T08:16:31;32.22;;;19.33;;
82292;SDS011;71892;14.836;105.234;2024-02-26T08:18:58;21.33;;;16.48;;
82292;SDS011;71892;14.836;105.234;2024-02-26T08:21:30;27.65;;;18.17;;
82292;SDS011;71892;14.836;105.234;2024-02-26T08:23:57;25.27;;;17.92;;
82292;SDS011;71892;14.836;105.234;2024-02-26T08:26:23;27.73;;;18.10;;
82292;SDS011;71892;14.836;105.234;2024-02-26T08:28:50;24.55;;;17.65;;
82292;SDS011;71892;14.836;105.234;2024-02-26T08:31:16;22.92;;;18.17;;
82292;SDS011;71892;14.836;105.234;2024-02-26T08:33:43;20.65;;;16.67;;
82292;SDS011;71892;14.836;105.234;2024-02-26T08:36:12;26.52;;;17.52;;
82292;SDS011;71892;14.836;105.234;2024-02-26T08:38:39;22.45;;;18.63;;
82292;SDS011;71892;14.836;105.234;2024-02-26T08:41:05;25.05;;;19.13;;
82292;SDS011;71892;14.836;105.234;2024-02-26T08:43:32;27.85;;;19.05;;
82292;SDS011;71892;14.836;105.234;2024-02-26T08:45:59;24.67;;;18.75;;
82292;SDS011;71892;14.836;105.234;2024-02-26T08:48:25;26.80;;;19.88;;
82292;SDS011;71892;14.836;105.234;2024-02-26T08:50:52;39.92;;;20.80;;
82292;SDS011;71892;14.836;105.234;2024-02-26T08:53:18;27.67;;;18.88;;
82292;SDS011;71892;14.836;105.234;2024-02-26T08:55:45;26.10;;;19.52;;
82292;SDS011;71892;14.836;105.234;2024-02-26T08:58:12;26.63;;;19.52;;
82292;SDS011;71892;14.836;105.234;2024-02-26T09:00:39;27.70;;;20.92;;
82292;SDS011;71892;14.836;105.234;2024-02-26T09:03:05;31.00;;;20.55;;
82292;SDS011;71892;14.836;105.234;2024-02-26T09:05:32;31.50;;;18.85;;
82292;SDS011;71892;14.836;105.234;2024-02-26T09:07:58;26.08;;;19.77;;
82292;SDS011;71892;14.836;105.234;2024-02-26T09:10:25;37.60;;;20.60;;
82292;SDS011;71892;14.836;105.234;2024-02-26T09:12:51;24.70;;;20.05;;
82292;SDS011;71892;14.836;105.234;2024-02-26T09:15:18;26.70;;;20.17;;
82292;SDS011;71892;14.836;105.234;2024-02-26T09:17:45;22.88;;;19.42;;
82292;SDS011;71892;14.836;105.234;2024-02-26T09:20:11;30.92;;;20.67;;
82292;SDS011;71892;14.836;105.234;2024-02-26T09:22:39;26.92;;;19.30;;
82292;SDS011;71892;14.836;105.234;2024-02-26T09:25:05;26.60;;;20.40;;
82292;SDS011;71892;14.836;105.234;2024-02-26T09:27:32;27.00;;;22.70;;
82292;SDS011;71892;14.836;105.234;2024-02-26T09:29:59;36.83;;;23.63;;
82292;SDS011;71892;14.836;105.234;2024-02-26T09:32:25;35.63;;;23.80;;
82292;SDS011;71892;14.836;105.234;2024-02-26T09:34:52;32.05;;;23.70;;
82292;SDS011;71892;14.836;105.234;2024-02-26T09:37:18;31.73;;;23.50;;
82292;SDS011;71892;14.836;105.234;2024-02-26T09:39:45;27.45;;;19.77;;
82292;SDS011;71892;14.836;105.234;2024-02-26T09:42:12;24.02;;;18.08;;
82292;SDS011;71892;14.836;105.234;2024-02-26T09:44:39;24.27;;;19.33;;
82292;SDS011;71892;14.836;105.234;2024-02-26T09:47:10;26.25;;;18.05;;
82292;SDS011;71892;14.836;105.234;2024-02-26T09:49:47;26.08;;;19.25;;
82292;SDS011;71892;14.836;105.234;2024-02-26T09:52:14;30.60;;;19.45;;
82292;SDS011;71892;14.836;105.234;2024-02-26T09:54:41;31.23;;;21.35;;
82292;SDS011;71892;14.836;105.234;2024-02-26T09:57:12;28.70;;;21.13;;
82292;SDS011;71892;14.836;105.234;2024-02-26T09:59:43;29.70;;;23.30;;
82292;SDS011;71892;14.836;105.234;2024-02-26T10:02:13;35.45;;;23.85;;
82292;SDS011;71892;14.836;105.234;2024-02-26T10:04:41;29.63;;;22.92;;
82292;SDS011;71892;14.836;105.234;2024-02-26T10:07:11;29.05;;;23.08;;
82292;SDS011;71892;14.836;105.234;2024-02-26T10:09:39;29.38;;;22.48;;
82292;SDS011;71892;14.836;105.234;2024-02-26T10:12:06;27.20;;;20.92;;
82292;SDS011;71892;14.836;105.234;2024-02-26T10:14:37;31.35;;;22.38;;
82292;SDS011;71892;14.836;105.234;2024-02-26T10:17:04;28.48;;;22.60;;
82292;SDS011;71892;14.836;105.234;2024-02-26T10:19:36;33.67;;;23.42;;
82292;SDS011;71892;14.836;105.234;2024-02-26T10:22:02;258.77;;;50.75;;
82292;SDS011;71892;14.836;105.234;2024-02-26T10:24:30;33.50;;;22.15;;
82292;SDS011;71892;14.836;105.234;2024-02-26T10:26:57;34.60;;;19.95;;
82292;SDS011;71892;14.836;105.234;2024-02-26T10:29:24;25.63;;;18.67;;
82292;SDS011;71892;14.836;105.234;2024-02-26T10:31:51;32.88;;;21.63;;
82292;SDS011;71892;14.836;105.234;2024-02-26T10:34:18;34.92;;;21.95;;
82292;SDS011;71892;14.836;105.234;2024-02-26T10:36:45;34.15;;;21.75;;
82292;SDS011;71892;14.836;105.234;2024-02-26T10:39:12;35.95;;;24.98;;
82292;SDS011;71892;14.836;105.234;2024-02-26T10:41:42;33.63;;;23.42;;
82292;SDS011;71892;14.836;105.234;2024-02-26T10:44:10;35.70;;;23.77;;
82292;SDS011;71892;14.836;105.234;2024-02-26T10:46:41;38.30;;;24.15;;
82292;SDS011;71892;14.836;105.234;2024-02-26T10:49:12;34.75;;;23.85;;
82292;SDS011;71892;14.836;105.234;2024-02-26T10:51:48;35.47;;;23.73;;
82292;SDS011;71892;14.836;105.234;2024-02-26T10:54:26;36.90;;;23.80;;
82292;SDS011;71892;14.836;105.234;2024-02-26T10:56:53;39.35;;;24.40;;
82292;SDS011;71892;14.836;105.234;2024-02-26T10:59:23;37.08;;;22.83;;
82292;SDS011;71892;14.836;105.234;2024-02-26T11:01:53;35.55;;;23.70;;
82292;SDS011;71892;14.836;105.234;2024-02-26T11:04:21;33.97;;;23.00;;
82292;SDS011;71892;14.836;105.234;2024-02-26T11:06:48;33.83;;;24.45;;
82292;SDS011;71892;14.836;105.234;2024-02-26T11:09:15;37.20;;;24.52;;
82292;SDS011;71892;14.836;105.234;2024-02-26T11:11:43;44.78;;;26.42;;
82292;SDS011;71892;14.836;105.234;2024-02-26T11:14:11;37.92;;;25.00;;
82292;SDS011;71892;14.836;105.234;2024-02-26T11:16:39;39.95;;;25.73;;
82292;SDS011;71892;14.836;105.234;2024-02-26T11:19:08;47.55;;;28.25;;
82292;SDS011;71892;14.836;105.234;2024-02-26T11:21:37;45.78;;;28.60;;
82292;SDS011;71892;14.836;105.234;2024-02-26T11:24:07;50.05;;;30.00;;
82292;SDS011;71892;14.836;105.234;2024-02-26T11:26:39;43.75;;;29.98;;
82292;SDS011;71892;14.836;105.234;2024-02-26T11:29:17;47.38;;;30.75;;
82292;SDS011;71892;14.836;105.234;2024-02-26T11:31:48;42.95;;;30.45;;
82292;SDS011;71892;14.836;105.234;2024-02-26T11:34:15;45.47;;;31.50;;
82292;SDS011;71892;14.836;105.234;2024-02-26T11:36:47;51.95;;;27.45;;
82292;SDS011;71892;14.836;105.234;2024-02-26T11:39:14;59.13;;;29.23;;
82292;SDS011;71892;14.836;105.234;2024-02-26T11:41:42;58.05;;;30.55;;
82292;SDS011;71892;14.836;105.234;2024-02-26T11:44:09;52.45;;;32.53;;
82292;SDS011;71892;14.836;105.234;2024-02-26T11:46:39;52.75;;;31.50;;
82292;SDS011;71892;14.836;105.234;2024-02-26T11:49:30;51.13;;;31.10;;
82292;SDS011;71892;14.836;105.234;2024-02-26T11:59:55;52.40;;;32.17;;
82292;SDS011;71892;14.836;105.234;2024-02-26T12:02:39;50.88;;;31.30;;
82292;SDS011;71892;14.836;105.234;2024-02-26T12:05:10;46.35;;;30.52;;
82292;SDS011;71892;14.836;105.234;2024-02-26T12:08:02;49.58;;;32.63;;
82292;SDS011;71892;14.836;105.234;2024-02-26T12:10:38;52.08;;;30.83;;
82292;SDS011;71892;14.836;105.234;2024-02-26T12:13:06;49.65;;;30.02;;
82292;SDS011;71892;14.836;105.234;2024-02-26T12:15:37;52.33;;;32.75;;
82292;SDS011;71892;14.836;105.234;2024-02-26T12:18:06;49.90;;;32.63;;
82292;SDS011;71892;14.836;105.234;2024-02-26T12:20:35;44.92;;;30.40;;
82292;SDS011;71892;14.836;105.234;2024-02-26T12:23:05;51.60;;;31.20;;
82292;SDS011;71892;14.836;105.234;2024-02-26T12:25:31;48.95;;;29.60;;
82292;SDS011;71892;14.836;105.234;2024-02-26T12:27:59;52.97;;;31.10;;
82292;SDS011;71892;14.836;105.234;2024-02-26T12:30:26;56.92;;;33.13;;
82292;SDS011;71892;14.836;105.234;2024-02-26T12:32:55;42.70;;;31.52;;
82292;SDS011;71892;14.836;105.234;2024-02-26T12:35:23;51.10;;;30.92;;
82292;SDS011;71892;14.836;105.234;2024-02-26T12:37:50;56.83;;;34.55;;
82292;SDS011;71892;14.836;105.234;2024-02-26T12:40:17;45.92;;;35.30;;
82292;SDS011;71892;14.836;105.234;2024-02-26T12:42:44;53.10;;;32.47;;
82292;SDS011;71892;14.836;105.234;2024-02-26T12:45:12;49.65;;;31.30;;
82292;SDS011;71892;14.836;105.234;2024-02-26T12:47:42;51.35;;;34.63;;
82292;SDS011;71892;14.836;105.234;2024-02-26T12:50:09;56.58;;;35.20;;
82292;SDS011;71892;14.836;105.234;2024-02-26T12:52:40;67.35;;;37.28;;
82292;SDS011;71892;14.836;105.234;2024-02-26T12:55:12;53.10;;;35.05;;
82292;SDS011;71892;14.836;105.234;2024-02-26T12:57:42;48.20;;;35.42;;
82292;SDS011;71892;14.836;105.234;2024-02-26T13:00:14;48.58;;;34.50;;
82292;SDS011;71892;14.836;105.234;2024-02-26T13:02:44;55.63;;;33.85;;
82292;SDS011;71892;14.836;105.234;2024-02-26T13:05:12;52.45;;;33.17;;
82292;SDS011;71892;14.836;105.234;2024-02-26T13:07:43;48.95;;;32.17;;
82292;SDS011;71892;14.836;105.234;2024-02-26T13:10:10;50.65;;;34.20;;
82292;SDS011;71892;14.836;105.234;2024-02-26T13:12:41;44.53;;;34.97;;
82292;SDS011;71892;14.836;105.234;2024-02-26T13:15:15;54.55;;;35.10;;
82292;SDS011;71892;14.836;105.234;2024-02-26T13:17:47;53.80;;;33.80;;
82292;SDS011;71892;14.836;105.234;2024-02-26T13:20:35;51.72;;;35.38;;
82292;SDS011;71892;14.836;105.234;2024-02-26T13:23:04;48.90;;;35.25;;
82292;SDS011;71892;14.836;105.234;2024-02-26T13:25:32;45.85;;;32.63;;
82292;SDS011;71892;14.836;105.234;2024-02-26T13:31:05;57.80;;;40.40;;
82292;SDS011;71892;14.836;105.234;2024-02-26T13:33:33;83.93;;;46.13;;
82292;SDS011;71892;14.836;105.234;2024-02-26T13:36:00;99.45;;;45.40;;
82292;SDS011;71892;14.836;105.234;2024-02-26T13:38:27;89.07;;;47.90;;
82292;SDS011;71892;14.836;105.234;2024-02-26T13:40:54;87.65;;;49.50;;
82292;SDS011;71892;14.836;105.234;2024-02-26T13:43:21;91.88;;;53.60;;
82292;SDS011;71892;14.836;105.234;2024-02-26T13:45:48;85.20;;;50.15;;
82292;SDS011;71892;14.836;105.234;2024-02-26T13:48:15;83.88;;;52.33;;
82292;SDS011;71892;14.836;105.234;2024-02-26T13:50:41;95.60;;;52.40;;
82292;SDS011;71892;14.836;105.234;2024-02-26T13:53:09;70.20;;;43.22;;
82292;SDS011;71892;14.836;105.234;2024-02-26T13:55:36;66.55;;;43.83;;
82292;SDS011;71892;14.836;105.234;2024-02-26T13:58:03;62.90;;;39.15;;
82292;SDS011;71892;14.836;105.234;2024-02-26T14:00:32;61.55;;;37.65;;
82292;SDS011;71892;14.836;105.234;2024-02-26T14:03:00;62.03;;;37.78;;
82292;SDS011;71892;14.836;105.234;2024-02-26T14:05:26;59.72;;;37.60;;
82292;SDS011;71892;14.836;105.234;2024-02-26T14:07:53;53.65;;;35.08;;
82292;SDS011;71892;14.836;105.234;2024-02-26T14:10:20;58.17;;;35.60;;
82292;SDS011;71892;14.836;105.234;2024-02-26T14:12:46;57.15;;;37.22;;